Aviation Digital Data Service (ADDS)

Output produced by METARs form (1007 UTC 19 January 2019)
found at http://www.aviationweather.gov/metar/data/
 
ENAT 190950Z 16004KT 9999 FEW004 M16/M18 Q0999 RESG RMK WIND 700FT 17009KT
TAF ENAT 190800Z 1909/1914 18008KT 9999 FEW010 BKN040 
     PROB40 
     TEMPO 1909/1911 BKN007 
     PROB30 
     TEMPO 1909/1914 2000 SHSN VV008
       
ENAN 190950Z 07021KT 7000 VCSH FEW007 SCT057CB M03/M04 Q0998
TAF AMD ENAN 1909/2006 01012KT 9999 FEW020 BKN030 
     TEMPO 1909/2006 0500 +SHSNGS BKN005 SCT015CB 
     TEMPO 1909/1920 03025KT DRSN 
     BECMG 1920/1923 18008KT
       
ENML 190950Z 26010KT 0500 R07/1500D SHSN VV002 M00/M02 Q1011
TAF ENML 190800Z 1909/1918 27010KT 9999 -SHSN FEW005 FEW015TCU BKN030 
     TEMPO 1909/1918 1200 SHSN VV008
       
ENNA 190950Z 16008KT CAVOK M14/M17 Q0999 RMK WIND 1800FT 28009KT
TAF ENNA 1906/2006 20010KT 9999 FEW010 BKN040 
     BECMG 1914/1916 33010KT 
     TEMPO 1915/1924 2000 SHSN VV007 
     TEMPO 2003/2006 27010KT
       
ENDU 190950Z 00000KT 9999 FEW030 SCT200 M23/M26 Q0999 NOSIG RMK WIND 1100FT 18004KT WIND 2200FT 00000KT
TAF ENDU 1906/2006 VRB05KT 9999 FEW008 BKN040
       
ENBR 190950Z 14004KT 9999 VCSH FEW012TCU FEW022 SCT025 01/00 Q1013 TEMPO 2000 SHSNRA VV008 RMK WIND 1200FT 26011KT
TAF ENBR 1906/2006 VRB05KT 9999 FEW012 SCT030 
     PROB40 
     TEMPO 1906/2006 SCT012CB 
     PROB40 
     TEMPO 1906/2006 1500 SHSNRA VV008
       
ENBO 190950Z 20007KT 9999 VCSH FEW005 SCT012CB BKN040 M03/M04 Q1000 TEMPO 29015KT 0600 SHSNGS VV006
TAF ENBO 1906/2006 29015KT 9999 FEW012CB SCT040 
     TEMPO 1906/1924 0600 SHSNGS VV006 
     PROB30 
     TEMPO 1906/1912 TS 
     TEMPO 1907/1912 VRB05KT 
     BECMG 1914/1916 10008KT
       
ENBL 190950Z VRB02KT 9999 2500E -SHSN SCT/// SCT010 BKN020 00/M00 Q1010
ENBN 190950Z VRB02KT 9999 6000N VCSH FEW010 SCT022CB M03/M04 Q1003
TAF ENBN 190800Z 1910/1916 35008KT 9999 FEW015 SCT020CB 
     TEMPO 1910/1916 35018KT 1000 SHSN VV009
       
ENEV 190950Z 19004KT 160V220 9999 SCT017 OVC033 M04/M07 Q0999 RMK WIND 1400FT 13003KT
TAF ENEV 190800Z 1909/1914 VRB08KT 9999 FEW010 BKN020 
     PROB40 
     TEMPO 1909/1914 1000 SHSN VV008
       
ENFL 190950Z 33007KT 9999 FEW008 SCT015 SCT045 02/M00 Q1012
TAF ENFL 190800Z 1909/1918 33010KT 9999 -SHRA FEW010 BKN025 
     BECMG 1911/1914 09007KT
       
ENHD 190950Z 11007KT 9999 FEW028TCU SCT037 01/00 Q1014
TAF ENHD 190800Z 1909/1918 13008KT 9999 FEW015TCU SCT030 
     PROB30 
     TEMPO 1909/1918 2000 SHSNRA VV008
       
ENKR 190950Z 17008KT 9999 FEW010 M16/M18 Q0999 RMK WIND 731FT 24011KT
TAF ENKR 190800Z 1909/1918 18008KT 9999 SCT020 
     PROB40 
     TEMPO 1909/1918 BKN004
       
ENMS 190920Z 12003KT 9999 8000N VCSH FEW020 SCT035 M06/M07 Q1002 RMK WIND 412FT /////KT
ENCN 190950Z VRB03KT 9999 VCSH FEW031 M03/M03 Q1015
TAF ENCN 190800Z 1909/1918 05007KT 9999 FEW030
       
ENKB 190950Z 32010G20KT 280V010 9999 FEW023 SCT033 BKN072 01/M05 Q1009 RMK WIND 745FT 34026KT
TAF ENKB 190800Z 1909/1916 30012KT 9999 FEW015CB BKN030 
     TEMPO 1909/1916 31015G25KT 2000 SHSNRA VV008
       
ENOL 190950Z 32018KT 9999 VCSH FEW010 FEW015CB SCT040 00/M07 Q1007 TEMPO 0500 SHSNGS VV006
ENOL 1906/2006 32018KT 9999 -SHSN FEW012CB BKN030 
     TEMPO 1906/2006 0500 SHSNGS VV006 
     TEMPO 1906/1909 33030G40KT DRSN
       
ENGM 190950Z VRB02KT CAVOK M11/M13 Q1007 NOSIG
TAF ENGM 1906/2006 VRB03KT CAVOK 
     PROB30 1918/2006 0500 FZFG VV001
       
ENRO 190950Z AUTO 31014KT 9999NDV -SHSN VV/// M05/M08 Q1002
ENRY 190950Z 20008KT CAVOK 00/M05 Q1010
TAF ENRY 1906/2006 22007KT CAVOK
       
ENSG 190950Z 23012KT 9999 -SHSN FEW010 BKN022 M01/M01 Q1008 RMK WIND 3806FT 28036KT
ENZV 190950Z 13006KT 9999 FEW025CB FEW040 M01/M02 Q1014 TEMPO 2000 SHSNRA VV008
TAF ENZV 1906/2006 13007KT 9999 FEW015TCU SCT030 
     PROB40 
     TEMPO 1906/2006 2000 SHSNRA VV008
       
ENST 190950Z 12003KT 4000 -SHSN VV010 M03/M04 Q1002 RMK WIND 300FT 13003KT
ENSS 190450Z 22022KT CAVOK M08/M10 Q0996 RMK WIND 500FT 22027KT
ENTO 190950Z 25005KT 220V290 CAVOK M01/M07 Q1010 NOSIG
TAF ENTO 1906/2006 25010KT CAVOK 
     BECMG 1920/1922 36005KT
       
ENTC 190950Z 26004KT 220V320 9999 FEW008 M07/M08 Q0999 NOSIG RMK WIND 2600FT /////KT
TAF ENTC 1906/2006 VRB08KT 9999 FEW005 BKN030 
     TEMPO 1906/2006 2000 SHSN VV008
       
ENVA 190950Z 30015KT 9999 2500W VCSH FEW031 BKN100 M01/M06 Q1006 TEMPO 30018G28KT 1000 SHSNGS VV005 TEMPO 30018G28KT 1000 SHSNGS VV005 RMK WIND 670FT 31024KT
ENVA 1906/2006 24018KT 9999 -SHSN SCT012CB BKN020 
     BECMG 1906/1908 31012KT 
     TEMPO 1906/2006 1000 SHSNGS VV005 
     TEMPO 1906/1912 30018G28KT 
     BECMG 1919/1921 23005KT
       
ENAL 190950Z 28004KT 9999 -SN VV005 M00/M01 Q1011
TAF ENAL 190800Z 1909/1918 30012KT 9999 FEW012TCU BKN030 
     PROB30 
     TEMPO 1909/1918 4000 SHRASN BKN012 FEW020CB